Airfield :
LOGIN :

Register | Disclaimer

   EN    FR    IT 

 










Legend :    VFR   Marginal VFR   IFR   Intensive IFR   Very Intensive IFR
Visi :
Ceiling :
>= 8 km
>= 3000ft
5 to 8 km
1000 to 3000 ft
1500m to 5 km
500 to 1000 ft
800 to 1500m
200 to 500 ft
< 800m
< 200 ft
Symbols :   Thunderstorms  Fog  Heavy snow  Heavy precipitations  Wind > 20 kt
SIGMETs :     Misc.  Thunderstorms  Icing  Turbulence  Mountain Waves  Volcanic Ashes






- Airport Elevation : 195 ft


LFMY - Salon de Provence

CURRENT METAR :
  • 261030Z AUTO 33009KT 8000 ////// 07/00 Q1030

EXPIRED METARs :
  • 261000Z AUTO 33006KT 300V360 8000 ////// 06/00 Q1030
  • 260930Z AUTO 31003KT 270V350 7000 ////// 05/01 Q1030
  • 260900Z AUTO 00000KT 4700 BR ////// 01/M00 Q1030
  • 260830Z AUTO 00000KT 3100 BR ////// 00/M00 Q1030
  • 260800Z AUTO 00000KT 2400 BR ////// M04/M04 Q1030

TAF TAF LFMY
Valid from the 26 at 09:00 until the 27 at 09:00 UTC


260800Z 2609/2709 VRB02KT 3000 BR NSC TX12/2613Z TNM03/2707Z
BECMG 2609/2610 9999 NSW
BECMG 2611/2613 32010KT



MET'MAP, your aeronautical weather chart ! - Copyright ORBIFLY December 2007 - Disclaimer

ORBIFLY MET'MAP TEAM :

Programming & Development : Alexandra Zaïnal
Original concept : Baudouin d'Aumeries
Technical & hardware support : Manuel Goepfert
Assistance : Marc-Olivier Méhu

Contact : metmap@orbifly.com




SOURCES & CREDITS :

   NOAA